createdAt,value
2018-01-11T00:00:42.116Z,0
2018-01-11T00:01:42.068Z,0
2018-01-11T00:02:42.317Z,0
2018-01-11T00:03:42.304Z,0
2018-01-11T00:04:42.024Z,0
2018-01-11T00:05:42.269Z,0
2018-01-11T00:06:41.994Z,0
2018-01-11T00:07:42.256Z,0
2018-01-11T00:08:42.239Z,0
2018-01-11T00:09:42.226Z,0
2018-01-11T00:10:42.226Z,0
2018-01-11T00:11:42.214Z,0
2018-01-11T00:12:41.918Z,0
2018-01-11T00:13:41.913Z,0
2018-01-11T00:14:41.896Z,0
2018-01-11T00:15:41.871Z,0
2018-01-11T00:16:41.868Z,0
2018-01-11T00:17:42.098Z,0
2018-01-11T00:18:41.830Z,0
2018-01-11T00:19:42.082Z,0
2018-01-11T00:20:42.081Z,0
2018-01-11T00:21:41.794Z,0
2018-01-11T00:22:42.034Z,0
2018-01-11T00:23:42.065Z,0
2018-01-11T00:24:42.039Z,0
2018-01-11T00:25:42.013Z,0
2018-01-11T00:26:41.989Z,0
2018-01-11T00:27:41.706Z,0
2018-01-11T00:28:41.452Z,0
2018-01-11T00:29:41.685Z,0
2018-01-11T00:30:41.930Z,0
2018-01-11T00:31:41.904Z,0
2018-01-11T00:32:41.907Z,0
2018-01-11T00:33:41.889Z,0
2018-01-11T00:34:41.874Z,0
2018-01-11T00:35:41.873Z,0
2018-01-11T00:36:41.597Z,0
2018-01-11T00:37:41.845Z,0
2018-01-11T00:38:41.819Z,0
2018-01-11T00:39:41.801Z,0
2018-01-11T00:40:41.792Z,0
2018-01-11T00:41:41.771Z,0
2018-01-11T00:42:41.773Z,0
2018-01-11T00:43:41.750Z,0
2018-01-11T00:44:41.747Z,0
2018-01-11T00:45:41.737Z,0
2018-01-11T00:46:41.206Z,0
2018-01-11T00:47:41.714Z,0
2018-01-11T00:48:41.691Z,0
2018-01-11T00:49:41.165Z,0
2018-01-11T00:50:41.401Z,0
2018-01-11T00:51:41.637Z,0
2018-01-11T00:52:41.640Z,0
2018-01-11T00:53:41.367Z,0
2018-01-11T00:54:41.621Z,0
2018-01-11T00:55:41.629Z,0
2018-01-11T00:56:41.583Z,0
2018-01-11T00:57:41.635Z,0
2018-01-11T00:58:41.293Z,0
2018-01-11T00:59:41.530Z,0
2018-01-11T01:00:41.519Z,0
2018-01-11T01:01:41.277Z,0
2018-01-11T01:02:41.497Z,0
2018-01-11T01:03:40.964Z,0
2018-01-11T01:04:41.202Z,0
2018-01-11T01:05:41.446Z,0
2018-01-11T01:06:41.439Z,0
2018-01-11T01:07:41.430Z,0
2018-01-11T01:08:41.154Z,0
2018-01-11T01:09:41.397Z,0
2018-01-11T01:10:41.378Z,0
2018-01-11T01:11:41.369Z,0
2018-01-11T01:12:41.364Z,0
2018-01-11T01:13:41.095Z,0
2018-01-11T01:14:41.340Z,0
2018-01-11T01:15:41.325Z,0
2018-01-11T01:16:41.308Z,0
2018-01-11T01:17:41.297Z,0
2018-01-11T01:18:41.289Z,0
2018-01-11T01:19:41.261Z,0
2018-01-11T01:20:40.728Z,0
2018-01-11T01:21:40.987Z,0
2018-01-11T01:22:41.238Z,0
2018-01-11T01:23:41.214Z,0
2018-01-11T01:24:41.194Z,0
2018-01-11T01:25:41.186Z,0
2018-01-11T01:26:40.902Z,0
2018-01-11T01:27:41.183Z,0
2018-01-11T01:28:41.155Z,0
2018-01-11T01:29:41.144Z,0
2018-01-11T01:30:41.119Z,0
2018-01-11T01:31:41.093Z,0
2018-01-11T01:32:40.838Z,0
2018-01-11T01:33:41.067Z,0
2018-01-11T01:34:41.062Z,0
2018-01-11T01:35:41.059Z,0
2018-01-11T01:36:40.770Z,0
2018-01-11T01:37:41.029Z,0
2018-01-11T01:38:41.008Z,0
2018-01-11T01:39:40.742Z,0
2018-01-11T01:40:40.980Z,0
2018-01-11T01:41:41.028Z,0
2018-01-11T01:42:40.947Z,0
2018-01-11T01:43:40.944Z,0
2018-01-11T01:44:40.929Z,0
2018-01-11T01:45:40.655Z,0
2018-01-11T01:46:40.893Z,0
2018-01-11T01:47:40.891Z,0
2018-01-11T01:48:40.885Z,0
2018-01-11T01:49:40.869Z,0
2018-01-11T01:50:40.842Z,0
2018-01-11T01:51:40.846Z,0
2018-01-11T01:52:40.820Z,0
2018-01-11T01:53:40.810Z,0
2018-01-11T01:54:40.794Z,0
2018-01-11T01:55:40.802Z,0
2018-01-11T01:56:40.760Z,0
2018-01-11T01:57:40.800Z,0
2018-01-11T01:58:40.747Z,0
2018-01-11T01:59:40.746Z,0
2018-01-11T02:00:40.720Z,0
2018-01-11T02:01:40.457Z,0
2018-01-11T02:02:40.691Z,0
2018-01-11T02:03:40.683Z,0
2018-01-11T02:04:40.665Z,0
2018-01-11T02:05:40.650Z,0
2018-01-11T02:06:40.638Z,0
2018-01-11T02:07:40.367Z,0
2018-01-11T02:08:40.616Z,0
2018-01-11T02:09:40.604Z,0
2018-01-11T02:10:40.608Z,0
2018-01-11T02:11:40.580Z,0
2018-01-11T02:12:40.564Z,0
2018-01-11T02:13:40.560Z,0
2018-01-11T02:14:40.548Z,0
2018-01-11T02:15:40.534Z,0
2018-01-11T02:16:40.517Z,0
2018-01-11T02:17:40.504Z,0
2018-01-11T02:18:40.480Z,0
2018-01-11T02:19:40.482Z,0
2018-01-11T02:20:40.194Z,0
2018-01-11T02:21:40.437Z,0
2018-01-11T02:22:40.443Z,0
2018-01-11T02:23:40.156Z,0
2018-01-11T02:24:40.459Z,0
2018-01-11T02:25:40.388Z,0
2018-01-11T02:26:39.861Z,0
2018-01-11T02:27:40.112Z,0
2018-01-11T02:28:40.361Z,0
2018-01-11T02:29:40.351Z,0
2018-01-11T02:30:40.334Z,0
2018-01-11T02:31:40.331Z,0
2018-01-11T02:32:40.299Z,0
2018-01-11T02:33:40.291Z,0
2018-01-11T02:34:40.263Z,0
2018-01-11T02:35:40.269Z,0
2018-01-11T02:36:39.995Z,0
2018-01-11T02:37:40.231Z,0
2018-01-11T02:38:39.969Z,0
2018-01-11T02:39:40.220Z,0
2018-01-11T02:40:40.198Z,0
2018-01-11T02:41:40.178Z,0
2018-01-11T02:42:40.180Z,0
2018-01-11T02:43:40.170Z,0
2018-01-11T02:44:40.129Z,0
2018-01-11T02:45:39.868Z,0
2018-01-11T02:46:39.873Z,0
2018-01-11T02:47:40.096Z,0
2018-01-11T02:48:40.381Z,0
2018-01-11T02:49:39.568Z,0
2018-01-11T02:50:40.066Z,0
2018-01-11T02:51:40.058Z,0
2018-01-11T02:52:39.795Z,0
2018-01-11T02:53:40.031Z,0
2018-01-11T02:54:40.026Z,0
2018-01-11T02:55:39.745Z,0
2018-01-11T02:56:39.716Z,0
2018-01-11T02:57:39.970Z,0
2018-01-11T02:58:39.963Z,0
2018-01-11T02:59:39.937Z,0
2018-01-11T03:00:39.930Z,0
2018-01-11T03:01:39.909Z,0
2018-01-11T03:02:39.887Z,0
2018-01-11T03:03:39.369Z,0
2018-01-11T03:04:39.874Z,0
2018-01-11T03:05:39.598Z,0
2018-01-11T03:06:39.848Z,0
2018-01-11T03:07:39.823Z,0
2018-01-11T03:08:39.835Z,0
2018-01-11T03:09:39.818Z,0
2018-01-11T03:10:39.273Z,0
2018-01-11T03:11:39.274Z,0
2018-01-11T03:12:39.762Z,0
2018-01-11T03:13:39.769Z,0
2018-01-11T03:14:39.744Z,0
2018-01-11T03:15:39.731Z,0
2018-01-11T03:16:39.724Z,0
2018-01-11T03:17:39.497Z,0
2018-01-11T03:18:39.683Z,0
2018-01-11T03:19:39.673Z,0
2018-01-11T03:20:39.410Z,0
2018-01-11T03:21:39.388Z,0
2018-01-11T03:22:39.643Z,0
2018-01-11T03:23:39.623Z,0
2018-01-11T03:24:39.348Z,0
2018-01-11T03:25:39.612Z,0
2018-01-11T03:26:39.324Z,0
2018-01-11T03:27:39.575Z,0
2018-01-11T03:28:39.560Z,0
2018-01-11T03:29:39.298Z,0
2018-01-11T03:30:39.536Z,0
2018-01-11T03:31:39.531Z,0
2018-01-11T03:32:39.502Z,0
2018-01-11T03:33:39.233Z,0
2018-01-11T03:34:39.228Z,0
2018-01-11T03:35:39.482Z,0
2018-01-11T03:36:39.453Z,0
2018-01-11T03:37:39.199Z,0
2018-01-11T03:38:39.436Z,0
2018-01-11T03:39:39.404Z,0
2018-01-11T03:40:39.405Z,0
2018-01-11T03:41:39.386Z,0
2018-01-11T03:42:39.129Z,0
2018-01-11T03:43:39.372Z,0
2018-01-11T03:44:39.088Z,0
2018-01-11T03:45:39.080Z,0
2018-01-11T03:46:39.323Z,0
2018-01-11T03:47:39.298Z,0
2018-01-11T03:48:39.040Z,0
2018-01-11T03:49:39.031Z,0
2018-01-11T03:50:39.256Z,0
2018-01-11T03:51:39.269Z,0
2018-01-11T03:52:39.256Z,0
2018-01-11T03:53:38.980Z,0
2018-01-11T03:54:38.969Z,0
2018-01-11T03:55:39.196Z,0
2018-01-11T03:56:38.925Z,0
2018-01-11T03:57:38.936Z,0
2018-01-11T03:58:38.913Z,0
2018-01-11T03:59:38.893Z,0
2018-01-11T04:00:38.880Z,0
2018-01-11T04:01:38.877Z,0
2018-01-11T04:02:39.118Z,0
2018-01-11T04:03:38.841Z,0
2018-01-11T04:04:39.100Z,0
2018-01-11T04:05:38.815Z,0
2018-01-11T04:06:38.545Z,0
2018-01-11T04:07:39.037Z,0
2018-01-11T04:08:38.788Z,0
2018-01-11T04:09:39.010Z,0
2018-01-11T04:10:38.757Z,0
2018-01-11T04:11:38.746Z,0
2018-01-11T04:12:39.037Z,0
2018-01-11T04:13:38.967Z,0
2018-01-11T04:14:38.971Z,0
2018-01-11T04:15:38.930Z,0
2018-01-11T04:16:38.940Z,0
2018-01-11T04:17:38.907Z,0
2018-01-11T04:18:38.924Z,0
2018-01-11T04:19:38.668Z,0
2018-01-11T04:20:38.367Z,0
2018-01-11T04:21:38.614Z,0
2018-01-11T04:22:38.605Z,0
2018-01-11T04:23:38.849Z,0
2018-01-11T04:24:38.575Z,0
2018-01-11T04:25:38.558Z,0
2018-01-11T04:26:38.800Z,0
2018-01-11T04:27:38.781Z,0
2018-01-11T04:28:38.524Z,0
2018-01-11T04:29:38.498Z,0
2018-01-11T04:30:38.759Z,0
2018-01-11T04:31:38.504Z,0
2018-01-11T04:32:38.720Z,0
2018-01-11T04:33:38.715Z,0
2018-01-11T04:34:38.687Z,0
2018-01-11T04:35:38.675Z,0
2018-01-11T04:36:38.676Z,0
2018-01-11T04:37:38.660Z,0
2018-01-11T04:38:38.651Z,0
2018-01-11T04:39:38.124Z,0
2018-01-11T04:40:38.627Z,0
2018-01-11T04:41:38.590Z,0
2018-01-11T04:42:38.578Z,0
2018-01-11T04:43:38.312Z,0
2018-01-11T04:44:38.299Z,0
2018-01-11T04:45:38.531Z,0
2018-01-11T04:46:38.009Z,0
2018-01-11T04:47:38.516Z,0
2018-01-11T04:48:38.512Z,0
2018-01-11T04:49:37.969Z,0
2018-01-11T04:50:38.216Z,0
2018-01-11T04:51:38.472Z,0
2018-01-11T04:52:38.440Z,0
2018-01-11T04:53:38.177Z,0
2018-01-11T04:54:38.423Z,0
2018-01-11T04:55:38.407Z,0
2018-01-11T04:56:38.128Z,0
2018-01-11T04:57:38.382Z,0
2018-01-11T04:58:37.873Z,0
2018-01-11T04:59:38.368Z,0
2018-01-11T05:00:38.346Z,0
2018-01-11T05:01:38.059Z,0
2018-01-11T05:02:38.043Z,0
2018-01-11T05:03:37.775Z,0
2018-01-11T05:04:37.772Z,0
2018-01-11T05:05:37.748Z,0
2018-01-11T05:06:38.001Z,0
2018-01-11T05:07:37.985Z,0
2018-01-11T05:08:38.249Z,0
2018-01-11T05:09:37.962Z,0
2018-01-11T05:10:38.190Z,0
2018-01-11T05:11:37.680Z,0
2018-01-11T05:12:37.395Z,0
2018-01-11T05:13:37.914Z,0
2018-01-11T05:14:38.150Z,0
2018-01-11T05:15:38.142Z,0
2018-01-11T05:16:37.868Z,0
2018-01-11T05:17:37.855Z,0
2018-01-11T05:18:37.577Z,0
2018-01-11T05:19:38.067Z,0
2018-01-11T05:20:37.800Z,0
2018-01-11T05:21:37.801Z,0
2018-01-11T05:22:38.042Z,0
2018-01-11T05:23:37.768Z,20
2018-01-11T05:24:38.020Z,36
2018-01-11T05:25:38.013Z,40
2018-01-11T05:26:37.981Z,40
2018-01-11T05:27:37.779Z,40
2018-01-11T05:28:37.967Z,40
2018-01-11T05:29:37.943Z,44
2018-01-11T05:30:37.660Z,44
2018-01-11T05:31:37.401Z,40
2018-01-11T05:32:37.635Z,44
2018-01-11T05:33:37.911Z,44
2018-01-11T05:34:37.366Z,44
2018-01-11T05:35:37.911Z,44
2018-01-11T05:36:37.848Z,44
2018-01-11T05:37:37.563Z,44
2018-01-11T05:38:37.824Z,44
2018-01-11T05:39:37.295Z,44
2018-01-11T05:40:37.279Z,40
2018-01-11T05:41:37.516Z,40
2018-01-11T05:42:37.497Z,40
2018-01-11T05:43:37.498Z,40
2018-01-11T05:44:37.755Z,40
2018-01-11T05:45:37.718Z,40
2018-01-11T05:46:37.702Z,40
2018-01-11T05:47:37.443Z,40
2018-01-11T05:48:37.423Z,40
2018-01-11T05:49:37.654Z,0
2018-01-11T05:50:37.395Z,0
2018-01-11T05:51:37.379Z,0
2018-01-11T05:52:37.626Z,0
2018-01-11T05:53:37.338Z,0
2018-01-11T05:54:37.094Z,0
2018-01-11T05:55:37.330Z,0
2018-01-11T05:56:37.310Z,0
2018-01-11T05:57:37.563Z,0
2018-01-11T05:58:37.020Z,0
2018-01-11T05:59:37.522Z,0
2018-01-11T06:00:37.516Z,0
2018-01-11T06:01:37.232Z,0
2018-01-11T06:02:37.227Z,0
2018-01-11T06:03:36.947Z,0
2018-01-11T06:04:37.454Z,0
2018-01-11T06:05:37.180Z,0
2018-01-11T06:06:37.156Z,0
2018-01-11T06:07:37.408Z,0
2018-01-11T06:08:37.390Z,0
2018-01-11T06:09:37.129Z,0
2018-01-11T06:10:37.366Z,0
2018-01-11T06:11:37.096Z,0
2018-01-11T06:12:37.092Z,0
2018-01-11T06:13:37.072Z,0
2018-01-11T06:14:37.352Z,0
2018-01-11T06:15:37.283Z,0
2018-01-11T06:16:37.294Z,0
2018-01-11T06:17:37.013Z,0
2018-01-11T06:18:37.255Z,0
2018-01-11T06:19:37.246Z,0
2018-01-11T06:20:36.969Z,0
2018-01-11T06:21:36.946Z,0
2018-01-11T06:22:37.206Z,0
2018-01-11T06:23:36.945Z,0
2018-01-11T06:24:37.184Z,0
2018-01-11T06:25:36.656Z,0
2018-01-11T06:26:37.150Z,0
2018-01-11T06:27:37.140Z,0
2018-01-11T06:28:36.860Z,0
2018-01-11T06:29:37.097Z,0
2018-01-11T06:30:37.103Z,0
2018-01-11T06:31:36.921Z,0
2018-01-11T06:32:36.825Z,0
2018-01-11T06:33:37.053Z,0
2018-01-11T06:34:36.787Z,0
2018-01-11T06:35:36.770Z,0
2018-01-11T06:36:37.024Z,0
2018-01-11T06:37:37.010Z,0
2018-01-11T06:38:36.974Z,0
2018-01-11T06:39:36.729Z,0
2018-01-11T06:40:37.028Z,4
2018-01-11T06:41:36.693Z,4
2018-01-11T06:42:36.985Z,4
2018-01-11T06:43:36.931Z,4
2018-01-11T06:44:36.914Z,4
2018-01-11T06:45:36.652Z,4
2018-01-11T06:46:36.877Z,4
2018-01-11T06:47:36.614Z,8
2018-01-11T06:48:36.882Z,8
2018-01-11T06:49:36.838Z,8
2018-01-11T06:50:36.830Z,8
2018-01-11T06:51:36.828Z,12
2018-01-11T06:52:36.857Z,12
2018-01-11T06:53:36.521Z,12
2018-01-11T06:54:36.506Z,16
2018-01-11T06:55:36.517Z,16
2018-01-11T06:56:36.504Z,20
2018-01-11T06:57:36.729Z,24
2018-01-11T06:58:36.470Z,24
2018-01-11T06:59:36.459Z,28
2018-01-11T07:00:36.449Z,32
2018-01-11T07:01:36.696Z,36
2018-01-11T07:02:36.663Z,40
2018-01-11T07:03:36.150Z,44
2018-01-11T07:04:36.396Z,48
2018-01-11T07:05:36.367Z,56
2018-01-11T07:06:36.361Z,64
2018-01-11T07:07:36.345Z,72
2018-01-11T07:08:36.590Z,80
2018-01-11T07:09:36.320Z,88
2018-01-11T07:10:36.056Z,92
2018-01-11T07:11:36.325Z,100
2018-01-11T07:12:36.547Z,112
2018-01-11T07:13:36.312Z,124
2018-01-11T07:14:36.267Z,132
2018-01-11T07:15:36.498Z,144
2018-01-11T07:16:36.228Z,152
2018-01-11T07:17:36.482Z,160
2018-01-11T07:18:36.457Z,172
2018-01-11T07:19:36.438Z,180
2018-01-11T07:20:36.430Z,188
2018-01-11T07:21:36.179Z,200
2018-01-11T07:22:36.413Z,208
2018-01-11T07:23:36.130Z,220
2018-01-11T07:24:36.393Z,228
2018-01-11T07:25:36.104Z,240
2018-01-11T07:26:36.358Z,252
2018-01-11T07:27:36.284Z,260
2018-01-11T07:28:36.073Z,264
2018-01-11T07:29:36.336Z,276
2018-01-11T07:30:36.046Z,288
2018-01-11T07:31:36.298Z,304
2018-01-11T07:32:36.035Z,320
2018-01-11T07:33:35.999Z,336
2018-01-11T07:34:35.983Z,356
2018-01-11T07:35:36.243Z,380
2018-01-11T07:36:36.230Z,400
2018-01-11T07:37:35.942Z,424
2018-01-11T07:38:35.937Z,440
2018-01-11T07:39:36.193Z,460
2018-01-11T07:40:35.931Z,480
2018-01-11T07:41:36.162Z,496
2018-01-11T07:42:36.138Z,508
2018-01-11T07:43:36.146Z,532
2018-01-11T07:44:36.118Z,548
2018-01-11T07:45:36.107Z,568
2018-01-11T07:46:36.089Z,592
2018-01-11T07:47:35.868Z,612
2018-01-11T07:48:35.802Z,624
2018-01-11T07:49:35.809Z,640
2018-01-11T07:50:36.045Z,648
2018-01-11T07:51:35.775Z,648
2018-01-11T07:52:35.752Z,640
2018-01-11T07:53:35.752Z,624
2018-01-11T07:54:35.476Z,616
2018-01-11T07:55:35.712Z,608
2018-01-11T07:56:35.712Z,616
2018-01-11T07:57:35.956Z,620
2018-01-11T07:58:35.950Z,620
2018-01-11T07:59:35.469Z,628
2018-01-11T08:00:35.911Z,668
2018-01-11T08:01:35.901Z,724
2018-01-11T08:02:35.368Z,788
2018-01-11T08:03:35.631Z,848
2018-01-11T08:04:35.885Z,908
2018-01-11T08:05:35.840Z,940
2018-01-11T08:06:35.825Z,984
2018-01-11T08:07:35.586Z,1036
2018-01-11T08:08:35.810Z,1064
2018-01-11T08:09:35.263Z,1064
2018-01-11T08:10:35.776Z,1076
2018-01-11T08:11:35.511Z,1092
2018-01-11T08:12:35.495Z,1100
2018-01-11T08:13:35.733Z,1084
2018-01-11T08:14:35.787Z,1036
2018-01-11T08:15:35.715Z,1036
2018-01-11T08:16:35.723Z,1036
2018-01-11T08:17:35.716Z,1080
2018-01-11T08:18:35.422Z,1140
2018-01-11T08:19:35.689Z,1168
2018-01-11T08:20:35.672Z,1220
2018-01-11T08:21:35.415Z,1264
2018-01-11T08:22:35.623Z,1284
2018-01-11T08:23:35.620Z,1312
2018-01-11T08:24:35.620Z,1328
2018-01-11T08:25:35.070Z,1312
2018-01-11T08:26:35.066Z,1336
2018-01-11T08:27:35.323Z,1396
2018-01-11T08:28:35.077Z,1448
2018-01-11T08:29:35.552Z,1460
2018-01-11T08:30:35.537Z,1404
2018-01-11T08:31:35.533Z,1344
2018-01-11T08:32:35.506Z,1344
2018-01-11T08:33:35.227Z,1376
2018-01-11T08:34:35.469Z,1384
2018-01-11T08:35:35.504Z,1300
2018-01-11T08:36:35.189Z,1240
2018-01-11T08:37:35.176Z,1240
2018-01-11T08:38:35.162Z,1236
2018-01-11T08:39:35.194Z,1264
2018-01-11T08:40:35.142Z,1260
2018-01-11T08:41:35.366Z,1248
2018-01-11T08:42:35.396Z,1244
2018-01-11T08:43:35.091Z,1244
2018-01-11T08:44:35.352Z,1260
2018-01-11T08:45:35.066Z,1280
2018-01-11T08:46:35.307Z,1300
2018-01-11T08:47:35.286Z,1300
2018-01-11T08:48:35.044Z,1292
2018-01-11T08:49:35.006Z,1304
2018-01-11T08:50:35.025Z,1296
2018-01-11T08:51:35.000Z,1256
2018-01-11T08:52:35.221Z,1228
2018-01-11T08:53:35.240Z,1176
2018-01-11T08:54:34.941Z,1100
2018-01-11T08:55:35.190Z,1048
2018-01-11T08:56:35.174Z,1036
2018-01-11T08:57:35.207Z,1048
2018-01-11T08:58:35.158Z,1056
2018-01-11T08:59:35.138Z,1088
2018-01-11T09:00:34.915Z,1108
2018-01-11T09:01:35.139Z,1112
2018-01-11T09:02:34.857Z,1128
2018-01-11T09:03:35.121Z,1128
2018-01-11T09:04:34.844Z,1172
2018-01-11T09:05:35.061Z,1240
2018-01-11T09:06:34.798Z,1292
2018-01-11T09:07:34.524Z,1352
2018-01-11T09:08:35.028Z,1388
2018-01-11T09:09:34.766Z,1428
2018-01-11T09:10:35.026Z,1480
2018-01-11T09:11:34.469Z,1556
2018-01-11T09:12:34.711Z,1616
2018-01-11T09:13:34.441Z,1664
2018-01-11T09:14:34.989Z,1712
2018-01-11T09:15:34.985Z,1752
2018-01-11T09:16:34.934Z,1792
2018-01-11T09:17:34.684Z,1828
2018-01-11T09:18:34.377Z,1884
2018-01-11T09:19:34.892Z,1956
2018-01-11T09:20:34.884Z,2012
2018-01-11T09:21:34.704Z,2060
2018-01-11T09:22:35.038Z,2092
2018-01-11T09:23:34.891Z,2116
2018-01-11T09:24:34.996Z,2128
2018-01-11T09:25:34.976Z,2164
2018-01-11T09:26:35.222Z,2204
2018-01-11T09:27:34.954Z,2252
2018-01-11T09:28:34.902Z,2284
2018-01-11T09:29:34.234Z,2344
2018-01-11T09:30:34.516Z,2420
2018-01-11T09:31:34.835Z,2504
2018-01-11T09:32:34.830Z,2604
2018-01-11T09:33:34.532Z,2636
2018-01-11T09:34:34.745Z,2616
2018-01-11T09:35:34.791Z,2596
2018-01-11T09:36:34.434Z,2616
2018-01-11T09:37:34.463Z,2676
2018-01-11T09:38:34.472Z,2704
2018-01-11T09:39:34.433Z,2652
2018-01-11T09:40:34.635Z,2604
2018-01-11T09:41:34.358Z,2560
2018-01-11T09:42:34.676Z,2540
2018-01-11T09:43:34.571Z,2552
2018-01-11T09:44:34.346Z,2572
2018-01-11T09:45:34.556Z,2580
2018-01-11T09:46:34.038Z,2580
2018-01-11T09:47:34.277Z,2592
2018-01-11T09:48:34.519Z,2640
2018-01-11T09:49:34.252Z,2700
2018-01-11T09:50:34.006Z,2760
2018-01-11T09:51:34.494Z,2796
2018-01-11T09:52:34.504Z,2816
2018-01-11T09:53:34.581Z,2844
2018-01-11T09:54:34.193Z,2876
2018-01-11T09:55:34.440Z,2856
2018-01-11T09:56:34.505Z,2788
2018-01-11T09:57:34.427Z,2708
2018-01-11T09:58:34.392Z,2644
2018-01-11T09:59:34.373Z,2644
2018-01-11T10:00:34.421Z,2692
2018-01-11T10:01:34.362Z,2780
2018-01-11T10:02:34.443Z,2836
2018-01-11T10:03:34.189Z,2928
2018-01-11T10:04:34.339Z,3008
2018-01-11T10:05:34.056Z,3096
2018-01-11T10:06:34.038Z,3184
2018-01-11T10:07:34.061Z,3248
2018-01-11T10:08:34.103Z,3280
2018-01-11T10:09:34.308Z,3268
2018-01-11T10:10:34.262Z,3200
2018-01-11T10:11:34.336Z,3068
2018-01-11T10:12:34.260Z,3008
2018-01-11T10:13:33.935Z,3056
2018-01-11T10:14:34.299Z,3188
2018-01-11T10:15:34.239Z,3404
2018-01-11T10:16:34.019Z,3672
2018-01-11T10:17:34.235Z,3968
2018-01-11T10:18:34.186Z,4224
2018-01-11T10:19:34.165Z,4500
2018-01-11T10:20:34.287Z,4804
2018-01-11T10:21:34.257Z,5096
2018-01-11T10:22:34.340Z,5260
2018-01-11T10:23:34.224Z,5412
2018-01-11T10:24:33.622Z,5572
2018-01-11T10:25:33.886Z,5648
2018-01-11T10:26:34.081Z,5548
2018-01-11T10:27:34.072Z,5344
2018-01-11T10:28:34.038Z,5124
2018-01-11T10:29:34.173Z,4908
2018-01-11T10:30:34.054Z,4688
2018-01-11T10:31:34.049Z,4500
2018-01-11T10:32:33.738Z,4348
2018-01-11T10:33:34.083Z,4252
2018-01-11T10:34:33.940Z,4184
2018-01-11T10:35:33.738Z,4152
2018-01-11T10:36:33.756Z,4112
2018-01-11T10:37:33.963Z,4076
2018-01-11T10:38:33.199Z,4052
2018-01-11T10:39:33.392Z,4092
2018-01-11T10:40:33.485Z,4224
2018-01-11T10:41:33.877Z,4384
2018-01-11T10:42:33.852Z,4516
2018-01-11T10:43:33.622Z,4504
2018-01-11T10:44:33.819Z,4364
2018-01-11T10:45:33.950Z,4188
2018-01-11T10:46:33.653Z,4024
2018-01-11T10:47:33.858Z,3856
2018-01-11T10:48:33.413Z,3668
2018-01-11T10:49:33.897Z,3508
2018-01-11T10:50:33.352Z,3324
2018-01-11T10:51:33.901Z,3064
2018-01-11T10:52:33.568Z,2828
2018-01-11T10:53:33.776Z,2636
2018-01-11T10:54:33.698Z,2492
2018-01-11T10:55:33.699Z,2424
2018-01-11T10:56:33.689Z,2400
2018-01-11T10:57:33.695Z,2432
2018-01-11T10:58:33.516Z,2512
2018-01-11T10:59:33.755Z,2600
2018-01-11T11:00:33.463Z,2600
2018-01-11T11:01:33.681Z,2608
2018-01-11T11:02:33.445Z,2644
2018-01-11T11:03:33.370Z,2652
2018-01-11T11:04:33.615Z,2772
2018-01-11T11:05:33.606Z,2860
2018-01-11T11:06:33.329Z,2892
2018-01-11T11:07:33.316Z,2928
2018-01-11T11:08:33.575Z,2920
2018-01-11T11:09:33.597Z,2896
2018-01-11T11:10:33.547Z,2880
2018-01-11T11:11:33.534Z,2988
2018-01-11T11:12:33.257Z,3132
2018-01-11T11:13:33.284Z,3312
2018-01-11T11:14:33.526Z,3472
2018-01-11T11:15:33.481Z,3784
2018-01-11T11:16:33.217Z,4152
2018-01-11T11:17:33.451Z,4544
2018-01-11T11:18:33.442Z,4920
2018-01-11T11:19:33.412Z,5332
2018-01-11T11:20:33.153Z,5612
2018-01-11T11:21:33.142Z,5644
2018-01-11T11:22:33.420Z,5532
2018-01-11T11:23:33.564Z,5324
2018-01-11T11:24:33.353Z,5252
2018-01-11T11:25:32.834Z,5088
2018-01-11T11:26:33.345Z,5024
2018-01-11T11:27:33.071Z,5012
2018-01-11T11:28:33.063Z,5184
2018-01-11T11:29:33.080Z,5360
2018-01-11T11:30:33.516Z,5292
2018-01-11T11:31:33.332Z,5312
2018-01-11T11:32:33.004Z,5164
2018-01-11T11:33:32.766Z,4780
2018-01-11T11:34:32.992Z,4484
2018-01-11T11:35:33.271Z,4276
2018-01-11T11:36:32.825Z,4292
2018-01-11T11:37:32.768Z,4324
2018-01-11T11:38:33.268Z,4452
2018-01-11T11:39:33.797Z,4556
2018-01-11T11:40:33.457Z,4736
2018-01-11T11:41:33.274Z,5012
2018-01-11T11:42:33.253Z,5240
2018-01-11T11:43:33.156Z,5428
2018-01-11T11:44:33.134Z,5680
2018-01-11T11:45:33.137Z,5792
2018-01-11T11:46:33.104Z,6008
2018-01-11T11:47:33.123Z,6136
2018-01-11T11:48:33.095Z,6256
2018-01-11T11:49:32.882Z,6608
2018-01-11T11:50:33.112Z,6672
2018-01-11T11:51:32.809Z,6696
2018-01-11T11:52:33.049Z,6712
2018-01-11T11:53:33.050Z,6676
2018-01-11T11:54:33.028Z,6528
2018-01-11T11:55:33.000Z,6272
2018-01-11T11:56:32.961Z,5916
2018-01-11T11:57:32.972Z,5732
2018-01-11T11:58:32.732Z,5876
2018-01-11T11:59:32.934Z,6132
2018-01-11T12:00:32.413Z,6304
2018-01-11T12:01:32.711Z,6320
2018-01-11T12:02:32.691Z,6340
2018-01-11T12:03:32.627Z,6192
2018-01-11T12:04:32.932Z,6012
2018-01-11T12:05:32.890Z,5988
2018-01-11T12:06:32.619Z,5784
2018-01-11T12:07:32.865Z,5720
2018-01-11T12:08:32.677Z,5732
2018-01-11T12:09:32.824Z,5584
2018-01-11T12:10:32.842Z,5436
2018-01-11T12:11:32.809Z,5292
2018-01-11T12:12:32.832Z,5144
2018-01-11T12:13:32.792Z,5056
2018-01-11T12:14:32.266Z,4928
2018-01-11T12:15:32.808Z,4960
2018-01-11T12:16:32.794Z,5040
2018-01-11T12:17:32.776Z,5056
2018-01-11T12:18:32.606Z,5288
2018-01-11T12:19:32.815Z,5800
2018-01-11T12:20:32.784Z,6140
2018-01-11T12:21:32.813Z,6056
2018-01-11T12:22:32.792Z,5708
2018-01-11T12:23:32.793Z,5340
2018-01-11T12:24:32.822Z,4976
2018-01-11T12:25:32.994Z,4604
2018-01-11T12:26:31.917Z,4228
2018-01-11T12:27:32.393Z,3868
2018-01-11T12:28:32.407Z,3568
2018-01-11T12:29:32.704Z,3284
2018-01-11T12:30:33.282Z,2980
2018-01-11T12:31:32.658Z,2736
2018-01-11T12:32:32.640Z,2552
2018-01-11T12:33:32.608Z,2384
2018-01-11T12:34:32.618Z,2188
2018-01-11T12:35:32.875Z,2028
2018-01-11T12:36:32.262Z,2012
2018-01-11T12:37:32.042Z,2052
2018-01-11T12:38:32.016Z,2096
2018-01-11T12:39:32.585Z,2044
2018-01-11T12:40:32.554Z,1988
2018-01-11T12:41:32.561Z,1900
2018-01-11T12:42:32.547Z,1788
2018-01-11T12:43:32.535Z,1680
2018-01-11T12:44:31.953Z,1608
2018-01-11T12:45:31.917Z,1568
2018-01-11T12:46:32.571Z,1584
2018-01-11T12:47:32.426Z,1648
2018-01-11T12:48:32.241Z,1728
2018-01-11T12:49:32.499Z,1812
2018-01-11T12:50:32.357Z,1892
2018-01-11T12:51:32.440Z,1996
2018-01-11T12:52:32.084Z,2140
2018-01-11T12:53:32.328Z,2320
2018-01-11T12:54:32.315Z,2512
2018-01-11T12:55:32.286Z,2640
2018-01-11T12:56:32.294Z,2756
2018-01-11T12:57:32.307Z,2960
2018-01-11T12:58:31.853Z,3212
2018-01-11T12:59:31.985Z,3388
2018-01-11T13:00:31.969Z,3532
2018-01-11T13:01:31.974Z,3692
2018-01-11T13:02:32.185Z,3840
2018-01-11T13:03:32.058Z,3940
2018-01-11T13:04:31.921Z,4000
2018-01-11T13:05:31.720Z,3996
2018-01-11T13:06:32.203Z,4000
2018-01-11T13:07:31.870Z,4032
2018-01-11T13:08:31.872Z,4032
2018-01-11T13:09:32.209Z,4048
2018-01-11T13:10:31.917Z,4052
2018-01-11T13:11:31.883Z,4024
2018-01-11T13:12:31.861Z,3992
2018-01-11T13:13:31.844Z,3968
2018-01-11T13:14:32.073Z,3948
2018-01-11T13:15:31.875Z,3944
2018-01-11T13:16:32.088Z,3924
2018-01-11T13:17:32.046Z,3920
2018-01-11T13:18:32.047Z,3868
2018-01-11T13:19:32.021Z,3828
2018-01-11T13:20:31.821Z,3812
2018-01-11T13:21:32.070Z,3828
2018-01-11T13:22:32.072Z,3852
2018-01-11T13:23:32.047Z,3860
2018-01-11T13:24:31.739Z,3844
2018-01-11T13:25:31.954Z,3784
2018-01-11T13:26:31.752Z,3684
2018-01-11T13:27:31.953Z,3536
2018-01-11T13:28:31.909Z,3400
2018-01-11T13:29:31.675Z,3304
2018-01-11T13:30:31.882Z,3260
2018-01-11T13:31:31.898Z,3300
2018-01-11T13:32:31.384Z,3336
2018-01-11T13:33:31.608Z,3408
2018-01-11T13:34:31.647Z,3468
2018-01-11T13:35:31.567Z,3448
2018-01-11T13:36:31.827Z,3380
2018-01-11T13:37:31.524Z,3304
2018-01-11T13:38:31.575Z,3216
2018-01-11T13:39:31.564Z,3092
2018-01-11T13:40:31.780Z,2980
2018-01-11T13:41:31.763Z,2860
2018-01-11T13:42:31.769Z,2700
2018-01-11T13:43:31.687Z,2472
2018-01-11T13:44:31.460Z,2304
2018-01-11T13:45:31.768Z,2200
2018-01-11T13:46:31.738Z,2076
2018-01-11T13:47:31.764Z,1992
2018-01-11T13:48:31.824Z,2004
2018-01-11T13:49:31.570Z,2056
2018-01-11T13:50:31.398Z,2104
2018-01-11T13:51:31.653Z,2132
2018-01-11T13:52:31.707Z,2136
2018-01-11T13:53:31.392Z,2104
2018-01-11T13:54:31.679Z,2044
2018-01-11T13:55:31.376Z,1988
2018-01-11T13:56:31.632Z,1984
2018-01-11T13:57:31.619Z,1944
2018-01-11T13:58:31.574Z,1876
2018-01-11T13:59:31.357Z,1788
2018-01-11T14:00:31.383Z,1680
2018-01-11T14:01:31.529Z,1588